createdAt,value
2017-10-27T00:13:53.265Z,0
2017-10-27T00:15:06.045Z,0
2017-10-27T00:16:18.265Z,0
2017-10-27T00:17:31.541Z,0
2017-10-27T00:18:44.859Z,0
2017-10-27T00:19:57.612Z,0
2017-10-27T00:21:10.845Z,0
2017-10-27T00:22:23.598Z,0
2017-10-27T00:23:36.900Z,0
2017-10-27T00:24:49.170Z,0
2017-10-27T00:26:02.472Z,0
2017-10-27T00:27:15.729Z,0
2017-10-27T00:28:28.478Z,0
2017-10-27T00:29:41.288Z,0
2017-10-27T00:30:54.019Z,0
2017-10-27T00:32:06.949Z,0
2017-10-27T00:33:19.168Z,0
2017-10-27T00:34:32.432Z,0
2017-10-27T00:35:45.171Z,0
2017-10-27T00:36:58.432Z,0
2017-10-27T00:38:11.188Z,0
2017-10-27T00:39:23.929Z,0
2017-10-27T00:40:36.712Z,0
2017-10-27T00:41:48.592Z,0
2017-10-27T00:43:01.302Z,0
2017-10-27T00:44:13.520Z,0
2017-10-27T00:45:26.277Z,0
2017-10-27T00:46:38.498Z,0
2017-10-27T00:47:51.241Z,0
2017-10-27T00:49:03.956Z,0
2017-10-27T00:50:17.265Z,0
2017-10-27T00:51:29.951Z,0
2017-10-27T00:52:43.226Z,0
2017-10-27T00:53:55.939Z,0
2017-10-27T00:55:08.250Z,0
2017-10-27T00:56:21.558Z,0
2017-10-27T00:57:35.311Z,0
2017-10-27T00:58:47.515Z,0
2017-10-27T01:00:00.773Z,0
2017-10-27T01:01:14.038Z,0
2017-10-27T01:02:26.272Z,0
2017-10-27T01:03:39.530Z,0
2017-10-27T01:04:52.306Z,0
2017-10-27T01:06:04.620Z,0
2017-10-27T01:07:16.864Z,0
2017-10-27T01:08:29.073Z,0
2017-10-27T01:09:41.862Z,0
2017-10-27T01:10:54.627Z,0
2017-10-27T01:12:07.880Z,0
2017-10-27T01:13:20.603Z,0
2017-10-27T01:14:33.365Z,0
2017-10-27T01:15:46.132Z,0
2017-10-27T01:16:58.848Z,0
2017-10-27T01:18:11.484Z,0
2017-10-27T01:19:25.096Z,0
2017-10-27T01:20:37.831Z,0
2017-10-27T01:21:51.138Z,0
2017-10-27T01:23:03.402Z,0
2017-10-27T01:24:16.649Z,0
2017-10-27T01:25:29.919Z,0
2017-10-27T01:26:42.656Z,0
2017-10-27T01:27:55.544Z,0
2017-10-27T01:29:07.766Z,0
2017-10-27T01:30:20.719Z,0
2017-10-27T01:31:33.962Z,0
2017-10-27T01:32:46.684Z,0
2017-10-27T01:33:59.968Z,0
2017-10-27T01:35:12.723Z,0
2017-10-27T01:36:25.993Z,0
2017-10-27T01:37:38.751Z,0
2017-10-27T01:38:52.044Z,0
2017-10-27T01:40:04.803Z,0
2017-10-27T01:41:18.082Z,0
2017-10-27T01:42:31.316Z,0
2017-10-27T01:43:44.611Z,0
2017-10-27T01:44:57.329Z,0
2017-10-27T01:46:09.543Z,0
2017-10-27T01:47:22.835Z,0
2017-10-27T01:48:35.654Z,0
2017-10-27T01:49:48.439Z,0
2017-10-27T01:51:02.076Z,0
2017-10-27T01:52:16.056Z,0
2017-10-27T01:53:28.819Z,0
2017-10-27T01:54:41.560Z,0
2017-10-27T01:55:54.862Z,0
2017-10-27T01:57:08.251Z,0
2017-10-27T01:58:20.612Z,0
2017-10-27T01:59:33.322Z,0
2017-10-27T02:00:46.063Z,0
2017-10-27T02:01:59.320Z,0
2017-10-27T02:03:13.021Z,0
2017-10-27T02:04:26.018Z,0
2017-10-27T02:05:39.809Z,0
2017-10-27T02:06:52.646Z,0
2017-10-27T02:08:05.101Z,0
2017-10-27T02:09:17.953Z,0
2017-10-27T02:10:31.226Z,0
2017-10-27T02:11:44.500Z,0
2017-10-27T02:12:56.692Z,0
2017-10-27T02:14:08.873Z,0
2017-10-27T02:15:21.125Z,0
2017-10-27T02:16:33.764Z,0
2017-10-27T02:17:44.880Z,0
2017-10-27T02:18:57.837Z,0
2017-10-27T02:20:10.570Z,0
2017-10-27T02:21:23.300Z,0
2017-10-27T02:22:36.560Z,0
2017-10-27T02:23:49.306Z,0
2017-10-27T02:25:02.056Z,0
2017-10-27T02:26:15.015Z,0
2017-10-27T02:27:28.168Z,0
2017-10-27T02:28:41.112Z,0
2017-10-27T02:29:54.411Z,0
2017-10-27T02:31:07.696Z,0
2017-10-27T02:32:21.001Z,0
2017-10-27T02:33:33.770Z,0
2017-10-27T02:34:46.824Z,0
2017-10-27T02:35:59.816Z,0
2017-10-27T02:37:12.575Z,0
2017-10-27T02:38:25.314Z,0
2017-10-27T02:39:38.077Z,0
2017-10-27T02:40:50.826Z,0
2017-10-27T02:42:04.091Z,0
2017-10-27T02:43:16.854Z,0
2017-10-27T02:44:29.112Z,0
2017-10-27T02:45:41.868Z,0
2017-10-27T02:46:55.206Z,0
2017-10-27T02:48:08.966Z,0
2017-10-27T02:49:21.166Z,0
2017-10-27T02:50:34.443Z,0
2017-10-27T02:51:47.229Z,0
2017-10-27T02:53:00.007Z,0
2017-10-27T02:54:13.334Z,0
2017-10-27T02:55:26.062Z,0
2017-10-27T02:56:38.266Z,0
2017-10-27T02:57:50.503Z,0
2017-10-27T02:59:03.791Z,0
2017-10-27T03:00:16.513Z,0
2017-10-27T03:01:29.225Z,0
2017-10-27T03:02:41.417Z,0
2017-10-27T03:03:54.140Z,0
2017-10-27T03:05:07.441Z,0
2017-10-27T03:06:20.232Z,0
2017-10-27T03:07:32.961Z,0
2017-10-27T03:08:45.139Z,0
2017-10-27T03:09:57.359Z,0
2017-10-27T03:11:10.602Z,0
2017-10-27T03:12:23.359Z,0
2017-10-27T03:13:36.100Z,0
2017-10-27T03:14:48.835Z,0
2017-10-27T03:16:01.580Z,0
2017-10-27T03:17:14.290Z,0
2017-10-27T03:18:27.545Z,0
2017-10-27T03:19:39.746Z,0
2017-10-27T03:20:52.672Z,0
2017-10-27T03:22:04.859Z,0
2017-10-27T03:23:17.082Z,0
2017-10-27T03:24:30.037Z,0
2017-10-27T03:25:42.761Z,0
2017-10-27T03:26:55.473Z,0
2017-10-27T03:28:08.193Z,0
2017-10-27T03:29:20.379Z,0
2017-10-27T03:30:33.678Z,0
2017-10-27T03:31:45.902Z,0
2017-10-27T03:32:59.140Z,0
2017-10-27T03:34:11.868Z,0
2017-10-27T03:35:25.106Z,0
2017-10-27T03:36:38.387Z,0
2017-10-27T03:37:51.097Z,0
2017-10-27T03:39:04.523Z,0
2017-10-27T03:40:17.861Z,0
2017-10-27T03:41:30.073Z,0
2017-10-27T03:42:42.853Z,0
2017-10-27T03:43:56.139Z,0
2017-10-27T03:45:08.906Z,0
2017-10-27T03:46:22.148Z,0
2017-10-27T03:47:34.356Z,0
2017-10-27T03:48:46.058Z,0
2017-10-27T03:49:59.532Z,0
2017-10-27T03:51:12.802Z,0
2017-10-27T03:52:25.562Z,0
2017-10-27T03:53:38.818Z,0
2017-10-27T03:54:51.605Z,0
2017-10-27T03:56:04.549Z,0
2017-10-27T03:57:17.793Z,0
2017-10-27T03:58:30.025Z,0
2017-10-27T03:59:43.301Z,0
2017-10-27T04:00:56.047Z,0
2017-10-27T04:02:08.748Z,0
2017-10-27T04:03:22.029Z,0
2017-10-27T04:05:05.926Z,0
2017-10-27T04:06:18.656Z,0
2017-10-27T04:07:31.375Z,0
2017-10-27T04:08:44.621Z,0
2017-10-27T04:09:57.381Z,0
2017-10-27T04:11:10.651Z,0
2017-10-27T04:12:23.932Z,0
2017-10-27T04:13:37.186Z,0
2017-10-27T04:14:50.485Z,0
2017-10-27T04:16:02.725Z,0
2017-10-27T04:17:15.482Z,0
2017-10-27T04:18:28.221Z,0
2017-10-27T04:19:41.502Z,0
2017-10-27T04:20:54.229Z,0
2017-10-27T04:22:07.481Z,0
2017-10-27T04:23:20.200Z,0
2017-10-27T04:24:33.477Z,0
2017-10-27T04:25:46.202Z,0
2017-10-27T04:26:59.480Z,0
2017-10-27T04:28:13.293Z,0
2017-10-27T04:29:26.023Z,0
2017-10-27T04:30:39.298Z,0
2017-10-27T04:31:51.514Z,0
2017-10-27T04:33:04.791Z,0
2017-10-27T04:34:17.536Z,0
2017-10-27T04:35:30.267Z,0
2017-10-27T04:36:43.554Z,0
2017-10-27T04:37:56.798Z,0
2017-10-27T04:39:08.992Z,0
2017-10-27T04:40:21.152Z,0
2017-10-27T04:41:33.352Z,0
2017-10-27T04:42:46.577Z,0
2017-10-27T04:43:59.929Z,0
2017-10-27T04:45:12.650Z,0
2017-10-27T04:46:24.847Z,0
2017-10-27T04:47:38.147Z,0
2017-10-27T04:48:50.891Z,0
2017-10-27T04:50:04.171Z,0
2017-10-27T04:51:16.928Z,0
2017-10-27T04:52:30.217Z,0
2017-10-27T04:53:42.960Z,0
2017-10-27T04:55:27.392Z,0
2017-10-27T04:56:40.685Z,0
2017-10-27T04:57:52.903Z,0
2017-10-27T04:59:06.163Z,0
2017-10-27T05:00:19.600Z,0
2017-10-27T05:01:32.309Z,0
2017-10-27T05:02:44.504Z,0
2017-10-27T05:03:57.240Z,0
2017-10-27T05:05:10.557Z,0
2017-10-27T05:06:23.351Z,0
2017-10-27T05:07:36.058Z,0
2017-10-27T05:08:49.332Z,0
2017-10-27T05:10:02.083Z,0
2017-10-27T05:11:15.383Z,0
2017-10-27T05:12:28.115Z,0
2017-10-27T05:13:41.383Z,0
2017-10-27T05:14:54.629Z,0
2017-10-27T05:16:07.355Z,0
2017-10-27T05:18:22.967Z,0
2017-10-27T05:19:35.291Z,0
2017-10-27T05:20:48.253Z,0
2017-10-27T05:22:01.588Z,0
2017-10-27T05:23:14.344Z,0
2017-10-27T05:24:27.669Z,0
2017-10-27T05:25:40.886Z,0
2017-10-27T05:26:53.625Z,0
2017-10-27T05:28:06.347Z,0
2017-10-27T05:29:19.605Z,0
2017-10-27T05:30:32.871Z,0
2017-10-27T05:31:45.124Z,0
2017-10-27T05:32:58.386Z,0
2017-10-27T05:34:11.693Z,0
2017-10-27T05:35:25.016Z,0
2017-10-27T05:36:37.736Z,0
2017-10-27T05:37:50.986Z,0
2017-10-27T05:39:03.207Z,0
2017-10-27T05:40:16.482Z,0
2017-10-27T05:41:28.655Z,0
2017-10-27T05:42:40.881Z,0
2017-10-27T05:43:53.134Z,0
2017-10-27T05:45:05.909Z,0
2017-10-27T05:46:19.195Z,0
2017-10-27T05:47:31.901Z,0
2017-10-27T05:48:44.618Z,0
2017-10-27T05:49:57.344Z,0
2017-10-27T05:51:09.019Z,0
2017-10-27T05:52:22.262Z,0
2017-10-27T05:53:35.574Z,0
2017-10-27T05:54:48.849Z,0
2017-10-27T05:56:02.075Z,0
2017-10-27T05:57:14.771Z,0
2017-10-27T05:58:27.473Z,0
2017-10-27T05:59:40.176Z,0
2017-10-27T06:00:53.428Z,0
2017-10-27T06:02:06.685Z,0
2017-10-27T06:03:19.964Z,0
2017-10-27T06:04:33.230Z,0
2017-10-27T06:05:45.981Z,0
2017-10-27T06:06:59.217Z,0
2017-10-27T06:08:12.501Z,0
2017-10-27T06:09:25.740Z,0
2017-10-27T06:10:38.498Z,0
2017-10-27T06:11:51.756Z,0
2017-10-27T06:13:03.970Z,0
2017-10-27T06:14:16.674Z,0
2017-10-27T06:15:28.892Z,0
2017-10-27T06:16:41.073Z,0
2017-10-27T06:17:53.813Z,0
2017-10-27T06:19:06.034Z,0
2017-10-27T06:20:18.763Z,0
2017-10-27T06:21:31.487Z,0
2017-10-27T06:22:44.268Z,0
2017-10-27T06:23:56.477Z,0
2017-10-27T06:25:09.735Z,0
2017-10-27T06:26:21.916Z,0
2017-10-27T06:27:35.198Z,0
2017-10-27T06:28:47.945Z,0
2017-10-27T06:29:59.607Z,0
2017-10-27T06:31:12.352Z,0
2017-10-27T06:32:24.586Z,0
2017-10-27T06:33:37.294Z,0
2017-10-27T06:34:50.567Z,0
2017-10-27T06:36:02.792Z,0
2017-10-27T06:37:16.038Z,0
2017-10-27T06:38:29.286Z,0
2017-10-27T06:39:42.574Z,0
2017-10-27T06:40:54.953Z,0
2017-10-27T06:42:07.678Z,0
2017-10-27T06:43:20.396Z,0
2017-10-27T06:45:04.810Z,0
2017-10-27T06:46:18.064Z,0
2017-10-27T06:47:30.352Z,0
2017-10-27T06:48:42.571Z,0
2017-10-27T06:49:55.845Z,0
2017-10-27T06:51:09.097Z,0
2017-10-27T06:52:22.378Z,0
2017-10-27T06:53:35.118Z,0
2017-10-27T06:54:48.401Z,0
2017-10-27T06:56:00.050Z,0
2017-10-27T06:57:13.337Z,0
2017-10-27T06:58:25.545Z,0
2017-10-27T06:59:38.282Z,0
2017-10-27T07:00:51.002Z,0
2017-10-27T07:02:03.190Z,0
2017-10-27T07:03:16.432Z,0
2017-10-27T07:04:29.225Z,0
2017-10-27T07:05:42.545Z,0
2017-10-27T07:06:56.046Z,0
2017-10-27T07:08:08.786Z,0
2017-10-27T07:09:21.525Z,0
2017-10-27T07:10:35.057Z,0
2017-10-27T07:11:48.351Z,0
2017-10-27T07:13:00.531Z,0
2017-10-27T07:14:13.349Z,0
2017-10-27T07:15:26.379Z,0
2017-10-27T07:16:38.582Z,0
2017-10-27T07:17:51.333Z,0
2017-10-27T07:19:04.620Z,0
2017-10-27T07:20:16.807Z,0
2017-10-27T07:21:29.576Z,0
2017-10-27T07:22:42.849Z,0
2017-10-27T07:23:55.568Z,0
2017-10-27T07:25:07.801Z,0
2017-10-27T07:26:21.076Z,0
2017-10-27T07:27:33.803Z,0
2017-10-27T09:00:24.383Z,3092
2017-10-27T09:01:37.174Z,3532
2017-10-27T09:02:49.934Z,3948
2017-10-27T09:04:02.184Z,4324
2017-10-27T09:05:15.458Z,4620
2017-10-27T09:06:28.329Z,4788
2017-10-27T09:07:42.091Z,4948
2017-10-27T09:08:55.510Z,5032
2017-10-27T09:10:07.188Z,4924
2017-10-27T09:11:19.905Z,4572
2017-10-27T09:12:32.656Z,4316
2017-10-27T09:13:44.877Z,4512
2017-10-27T09:14:58.841Z,5100
2017-10-27T09:16:11.456Z,5776
2017-10-27T09:17:24.221Z,6264
2017-10-27T09:18:36.393Z,6608
2017-10-27T09:19:49.122Z,7088
2017-10-27T09:21:02.386Z,7460
2017-10-27T09:22:15.655Z,7868
2017-10-27T09:23:27.850Z,8376
2017-10-27T09:24:41.085Z,8864
2017-10-27T09:25:54.372Z,9132
2017-10-27T09:27:07.631Z,9312
2017-10-27T09:28:20.356Z,9560
2017-10-27T09:29:33.066Z,9860
2017-10-27T09:30:45.834Z,10192
2017-10-27T09:31:58.578Z,10356
2017-10-27T09:33:12.042Z,10336
2017-10-27T09:34:25.300Z,10272
2017-10-27T09:35:38.835Z,10264
2017-10-27T09:36:51.339Z,10444
2017-10-27T09:38:04.045Z,10648
2017-10-27T09:39:18.280Z,10876
2017-10-27T09:40:31.598Z,10932
2017-10-27T09:41:44.325Z,10984
2017-10-27T09:42:57.047Z,11048
2017-10-27T09:44:08.695Z,11152
2017-10-27T09:45:21.960Z,11208
2017-10-27T09:46:35.717Z,11272
2017-10-27T09:47:49.073Z,11424
2017-10-27T09:49:02.471Z,11824
2017-10-27T09:50:14.700Z,12420
2017-10-27T09:51:27.943Z,13044
2017-10-27T09:52:40.675Z,13784
2017-10-27T09:53:53.390Z,14472
2017-10-27T09:55:06.645Z,15096
2017-10-27T09:56:19.426Z,15696
2017-10-27T09:57:32.140Z,16152
2017-10-27T09:58:44.884Z,16376
2017-10-27T09:59:58.150Z,16480
2017-10-27T10:01:11.439Z,16436
2017-10-27T10:02:24.948Z,16464
2017-10-27T10:03:37.681Z,16576
2017-10-27T10:04:50.386Z,16928
2017-10-27T10:06:03.670Z,17216
2017-10-27T10:07:15.929Z,17504
2017-10-27T10:08:29.276Z,17952
2017-10-27T10:09:42.018Z,18656
2017-10-27T10:10:54.751Z,19520
2017-10-27T10:12:07.997Z,20128
2017-10-27T10:13:21.450Z,20768
2017-10-27T10:14:34.717Z,21504
2017-10-27T10:15:47.445Z,22048
2017-10-27T10:17:00.410Z,22528
2017-10-27T10:18:12.693Z,22624
2017-10-27T10:19:26.157Z,22784
2017-10-27T10:20:38.960Z,22496
2017-10-27T10:21:51.694Z,22368
2017-10-27T10:23:04.523Z,22112
2017-10-27T10:24:17.255Z,22112
2017-10-27T10:25:30.550Z,22400
2017-10-27T10:26:42.720Z,22656
2017-10-27T10:27:56.833Z,23136
2017-10-27T10:29:09.074Z,23744
2017-10-27T10:30:21.904Z,24384
2017-10-27T10:31:34.679Z,25248
2017-10-27T10:32:47.457Z,26176
2017-10-27T10:33:59.668Z,26944
2017-10-27T10:35:12.415Z,27808
2017-10-27T10:36:25.142Z,28448
2017-10-27T10:37:38.181Z,29824
2017-10-27T10:38:51.098Z,31712
2017-10-27T10:40:03.349Z,35200
2017-10-27T10:41:15.074Z,35200
2017-10-27T10:42:27.886Z,38688
2017-10-27T10:43:40.858Z,36256
2017-10-27T10:44:53.108Z,32128
2017-10-27T10:46:06.390Z,32352
2017-10-27T10:47:19.623Z,32064
2017-10-27T10:48:33.432Z,31872
2017-10-27T10:49:46.621Z,28608
2017-10-27T10:50:59.552Z,28704
2017-10-27T10:52:12.834Z,29344
2017-10-27T10:53:26.126Z,30144
2017-10-27T10:54:40.010Z,30688
2017-10-27T10:55:53.570Z,31296
2017-10-27T10:57:07.574Z,29568
2017-10-27T10:58:20.487Z,28928
2017-10-27T10:59:34.250Z,29088
2017-10-27T11:00:47.534Z,29792
2017-10-27T11:02:00.812Z,30528
2017-10-27T11:03:13.672Z,31552
2017-10-27T11:04:27.216Z,32576
2017-10-27T11:05:39.480Z,33376
2017-10-27T11:06:52.711Z,34752
2017-10-27T11:08:05.983Z,37152
2017-10-27T11:09:19.251Z,38496
2017-10-27T11:10:32.310Z,39200
2017-10-27T11:11:45.823Z,41920
2017-10-27T11:12:59.070Z,40608
2017-10-27T11:14:12.835Z,36032
2017-10-27T11:15:25.221Z,30752
2017-10-27T11:16:38.512Z,25888
2017-10-27T11:17:50.727Z,18880
2017-10-27T11:19:03.946Z,12988
2017-10-27T11:20:17.578Z,10040
2017-10-27T11:21:30.880Z,9548
2017-10-27T11:22:44.106Z,11220
2017-10-27T11:23:57.368Z,14208
2017-10-27T11:25:10.097Z,17344
2017-10-27T11:26:23.061Z,21248
2017-10-27T11:27:35.253Z,25952
2017-10-27T11:28:47.990Z,30016
2017-10-27T11:30:01.671Z,33088
2017-10-27T11:31:14.897Z,32416
2017-10-27T11:32:27.730Z,28800
2017-10-27T11:33:40.139Z,25536
2017-10-27T11:34:52.604Z,22016
2017-10-27T11:36:05.854Z,16800
2017-10-27T11:37:19.103Z,13164
2017-10-27T11:38:31.816Z,10944
2017-10-27T11:39:45.070Z,8896
2017-10-27T11:40:59.284Z,7944
2017-10-27T11:42:12.659Z,8488
2017-10-27T11:43:26.195Z,8532
2017-10-27T11:44:39.161Z,7064
2017-10-27T11:45:51.933Z,5740
2017-10-27T11:47:04.648Z,5384
2017-10-27T11:48:17.390Z,5540
2017-10-27T11:49:30.462Z,6144
2017-10-27T11:50:43.940Z,5996
2017-10-27T11:51:56.680Z,5568
2017-10-27T11:53:09.434Z,5248
2017-10-27T11:54:22.564Z,4856
2017-10-27T11:55:35.647Z,4508
2017-10-27T11:56:47.347Z,4748
2017-10-27T11:58:00.774Z,4872
2017-10-27T11:59:13.625Z,4924
2017-10-27T12:00:26.545Z,5068
2017-10-27T12:01:39.146Z,5160
2017-10-27T12:02:52.958Z,5216
2017-10-27T12:04:06.109Z,5308
2017-10-27T12:05:17.814Z,5556
2017-10-27T12:06:31.805Z,6140
2017-10-27T12:07:44.569Z,6920
2017-10-27T12:08:56.864Z,7972
2017-10-27T12:10:09.512Z,9696
2017-10-27T12:11:22.811Z,12048
2017-10-27T12:12:36.084Z,15008
2017-10-27T12:13:49.163Z,18752
2017-10-27T12:15:01.907Z,22368
2017-10-27T12:16:14.617Z,25376
2017-10-27T12:17:28.533Z,28000
2017-10-27T12:18:41.966Z,30560
2017-10-27T12:19:56.531Z,32992
2017-10-27T12:21:09.249Z,36000
2017-10-27T12:22:22.553Z,40032
2017-10-27T12:23:35.861Z,45376
2017-10-27T12:24:49.172Z,51776
2017-10-27T12:26:02.489Z,67648
2017-10-27T12:27:15.809Z,44128
2017-10-27T12:28:28.569Z,35456
2017-10-27T12:29:41.315Z,31104
2017-10-27T12:30:54.088Z,28800
2017-10-27T12:32:08.014Z,26144
2017-10-27T12:33:21.303Z,23232
2017-10-27T12:34:33.527Z,21568
2017-10-27T12:35:46.319Z,21120
2017-10-27T12:37:00.238Z,21696
2017-10-27T12:38:13.399Z,21824
2017-10-27T12:39:26.685Z,21248
2017-10-27T12:40:39.831Z,20416
2017-10-27T12:41:52.595Z,19520
2017-10-27T12:43:05.362Z,17888
2017-10-27T12:44:17.065Z,16140
2017-10-27T12:45:30.328Z,14376
2017-10-27T12:46:43.068Z,12728
2017-10-27T12:47:56.416Z,12160
2017-10-27T12:49:09.695Z,12964
2017-10-27T12:50:22.952Z,14480
2017-10-27T12:51:35.169Z,15588
2017-10-27T12:52:48.480Z,16504
2017-10-27T12:54:01.387Z,17364
2017-10-27T12:55:14.689Z,17760
2017-10-27T12:56:27.996Z,17316
2017-10-27T12:57:41.240Z,16676
2017-10-27T12:58:53.973Z,16548
2017-10-27T13:00:06.191Z,16996
2017-10-27T13:01:19.538Z,18336
2017-10-27T13:02:32.794Z,20032
2017-10-27T13:03:45.510Z,21920
2017-10-27T13:04:57.739Z,23936
2017-10-27T13:06:10.546Z,26624
2017-10-27T13:07:22.802Z,29728
2017-10-27T13:08:34.994Z,33472
2017-10-27T13:09:47.684Z,36736
2017-10-27T13:11:00.931Z,40224
2017-10-27T13:12:13.728Z,49024
2017-10-27T13:13:26.120Z,70048
2017-10-27T13:14:37.783Z,60480
2017-10-27T13:15:50.480Z,70560
2017-10-27T13:17:02.675Z,64512
2017-10-27T13:18:15.916Z,67424
2017-10-27T13:19:28.641Z,87776
2017-10-27T13:20:40.822Z,81376
2017-10-27T13:21:54.095Z,93216
2017-10-27T13:23:38.524Z,109728
2017-10-27T13:24:51.266Z,110944
2017-10-27T13:26:03.917Z,72768
2017-10-27T13:27:16.152Z,72352
2017-10-27T13:28:30.025Z,74912
2017-10-27T13:29:43.361Z,150144
2017-10-27T13:30:56.875Z,148448
2017-10-27T13:32:10.759Z,145376
2017-10-27T13:35:59.111Z,60576
2017-10-27T13:37:11.313Z,95872
2017-10-27T13:38:24.026Z,116960
2017-10-27T13:39:37.859Z,111456
2017-10-27T13:40:51.184Z,116320
2017-10-27T13:42:04.649Z,78976
2017-10-27T13:43:17.932Z,70336
2017-10-27T13:44:30.717Z,86976
2017-10-27T13:45:43.479Z,117120
2017-10-27T13:46:56.259Z,118720
2017-10-27T13:48:09.516Z,108512
2017-10-27T13:49:22.313Z,104288
2017-10-27T13:50:35.588Z,109120
2017-10-27T13:51:48.842Z,117952
2017-10-27T13:53:01.611Z,117952
2017-10-27T13:54:13.829Z,118720
2017-10-27T13:55:27.066Z,126176
2017-10-27T13:56:39.802Z,126336
2017-10-27T13:57:53.072Z,129536
2017-10-27T13:59:05.832Z,127936
2017-10-27T14:00:19.745Z,74592
2017-10-27T14:01:32.504Z,65248
2017-10-27T14:02:45.258Z,72864
2017-10-27T14:03:58.547Z,63072
2017-10-27T14:05:11.523Z,63744
2017-10-27T14:06:24.853Z,60032
2017-10-27T14:07:37.078Z,56704
2017-10-27T14:08:49.274Z,55808
2017-10-27T14:10:02.227Z,55296
2017-10-27T14:11:14.974Z,52512
2017-10-27T14:12:28.271Z,44640
2017-10-27T14:13:39.947Z,36864
2017-10-27T14:14:52.648Z,30016
2017-10-27T14:16:05.405Z,24480
2017-10-27T14:17:18.782Z,19040
2017-10-27T14:18:32.066Z,15784
2017-10-27T14:19:44.792Z,14984
2017-10-27T14:20:56.585Z,13784
2017-10-27T14:22:09.826Z,12080
2017-10-27T14:23:22.000Z,10992
2017-10-27T14:24:35.302Z,10708
2017-10-27T14:25:48.609Z,10448
2017-10-27T14:27:01.878Z,10316
2017-10-27T14:28:14.826Z,10960
2017-10-27T14:29:28.109Z,12236
2017-10-27T14:30:41.391Z,13876
2017-10-27T14:31:53.605Z,15724
2017-10-27T14:33:05.857Z,16972
2017-10-27T14:34:19.621Z,17472
2017-10-27T14:35:31.992Z,17536
2017-10-27T14:36:44.728Z,17408
2017-10-27T14:37:56.962Z,17280
2017-10-27T14:39:09.679Z,17408
2017-10-27T14:40:21.301Z,17792
2017-10-27T14:41:34.595Z,18272
2017-10-27T14:42:46.816Z,18432
2017-10-27T14:43:59.598Z,18496
2017-10-27T14:45:11.825Z,18496
2017-10-27T14:46:25.684Z,18784
2017-10-27T14:47:38.445Z,19392
2017-10-27T14:48:51.700Z,20000
2017-10-27T14:50:04.996Z,20640
2017-10-27T14:51:17.770Z,21760
2017-10-27T14:52:32.107Z,23424
2017-10-27T14:53:45.398Z,25664
2017-10-27T14:54:58.690Z,28640
2017-10-27T14:56:11.418Z,32448
2017-10-27T14:57:24.106Z,35808
2017-10-27T14:58:37.415Z,37920
2017-10-27T14:59:51.198Z,39008
2017-10-27T15:01:04.143Z,40512
2017-10-27T15:02:16.376Z,42976
2017-10-27T15:03:29.655Z,45632
2017-10-27T15:04:42.932Z,46048
2017-10-27T15:05:55.686Z,44960
2017-10-27T15:07:08.941Z,43872
2017-10-27T15:08:22.132Z,43968
2017-10-27T15:09:34.896Z,45952
2017-10-27T15:10:47.637Z,50112
2017-10-27T15:11:59.871Z,52320
2017-10-27T15:13:12.654Z,56640
2017-10-27T15:14:25.449Z,70208
2017-10-27T15:15:38.252Z,70880
2017-10-27T15:16:50.996Z,60576
2017-10-27T15:18:04.244Z,59200
2017-10-27T15:19:17.518Z,61984
2017-10-27T15:20:30.366Z,98240
2017-10-27T15:21:43.779Z,81664
2017-10-27T15:22:56.526Z,70304
2017-10-27T15:24:09.799Z,72160
2017-10-27T15:25:23.144Z,92352
2017-10-27T15:26:35.352Z,129920
2017-10-27T15:27:48.102Z,115712
2017-10-27T15:29:01.980Z,118272
2017-10-27T15:30:14.727Z,123104
2017-10-27T15:31:28.095Z,92928
2017-10-27T15:32:41.550Z,58464
2017-10-27T15:33:53.904Z,57856
2017-10-27T15:35:06.680Z,83168
2017-10-27T15:36:19.948Z,64288
2017-10-27T15:37:32.146Z,63936
2017-10-27T15:38:45.418Z,60192
2017-10-27T15:39:58.210Z,50144
2017-10-27T15:41:12.133Z,39232
2017-10-27T15:42:24.750Z,29856
2017-10-27T15:43:38.048Z,22528
2017-10-27T15:44:51.508Z,19072
2017-10-27T15:46:05.070Z,17280
2017-10-27T15:47:17.488Z,15640
2017-10-27T15:48:30.752Z,14312
2017-10-27T15:49:43.534Z,12816
2017-10-27T15:50:56.948Z,12032
2017-10-27T15:52:10.264Z,12364
2017-10-27T15:53:23.600Z,12980
2017-10-27T15:54:36.902Z,14024
2017-10-27T15:55:49.695Z,15420
2017-10-27T15:57:02.425Z,16656
2017-10-27T15:58:15.699Z,17280
2017-10-27T15:59:29.567Z,16928
2017-10-27T16:00:42.320Z,16432
2017-10-27T16:01:53.468Z,16432
2017-10-27T16:03:06.241Z,17536
2017-10-27T16:04:18.573Z,19200
2017-10-27T16:05:31.324Z,21216
2017-10-27T16:06:43.536Z,21888
2017-10-27T16:07:56.294Z,21440
2017-10-27T16:09:10.165Z,20608
2017-10-27T16:10:22.942Z,20160
2017-10-27T16:11:36.215Z,20160
2017-10-27T16:12:49.492Z,20576
2017-10-27T16:14:03.354Z,21760
2017-10-27T16:15:16.654Z,22944
2017-10-27T16:16:29.912Z,22784
2017-10-27T16:17:42.860Z,21632
2017-10-27T16:18:56.134Z,19552
2017-10-27T16:20:09.423Z,15632
2017-10-27T16:21:22.201Z,12036
2017-10-27T16:22:34.914Z,10012
2017-10-27T16:23:47.641Z,9144
2017-10-27T16:25:00.387Z,8600
2017-10-27T16:26:12.620Z,8016
2017-10-27T16:27:25.332Z,7440
2017-10-27T16:28:37.048Z,7448
2017-10-27T16:29:50.277Z,7892
2017-10-27T16:31:03.010Z,7564
2017-10-27T16:32:16.283Z,6924
2017-10-27T16:33:29.542Z,6648
2017-10-27T16:34:42.812Z,6568
2017-10-27T16:35:55.590Z,6236
2017-10-27T16:37:08.902Z,5984
2017-10-27T16:38:22.180Z,5936
2017-10-27T16:39:34.920Z,5824
2017-10-27T16:40:47.662Z,5584
2017-10-27T16:42:00.983Z,5232
2017-10-27T16:43:13.786Z,4856
2017-10-27T16:44:27.306Z,4596
2017-10-27T16:45:40.597Z,4480
2017-10-27T16:46:53.879Z,4384
2017-10-27T16:48:07.173Z,4224
2017-10-27T16:49:20.555Z,4028
2017-10-27T16:50:33.304Z,3852
2017-10-27T16:51:46.258Z,3736
2017-10-27T16:52:58.994Z,3760
2017-10-27T16:54:12.362Z,3808
2017-10-27T16:55:25.665Z,4596
2017-10-27T16:56:38.419Z,5356
2017-10-27T16:57:51.176Z,5764
2017-10-27T16:59:04.428Z,6120
2017-10-27T17:00:17.701Z,6520
2017-10-27T17:01:31.025Z,6824
2017-10-27T17:02:43.732Z,6600
2017-10-27T17:03:55.949Z,6040
2017-10-27T17:05:08.746Z,5652
2017-10-27T17:06:22.002Z,5748
2017-10-27T17:07:34.228Z,6220
2017-10-27T17:08:46.436Z,6820
2017-10-27T17:09:59.173Z,7316
2017-10-27T17:11:12.460Z,7688
2017-10-27T17:12:25.387Z,8364
2017-10-27T17:13:38.647Z,8616
2017-10-27T17:14:51.433Z,8940
2017-10-27T17:16:03.720Z,9608
2017-10-27T17:17:15.945Z,10192
2017-10-27T17:18:28.660Z,10340
2017-10-27T17:19:40.938Z,10672
2017-10-27T17:20:53.140Z,10740
2017-10-27T17:22:06.893Z,11076
2017-10-27T17:23:19.668Z,11820
2017-10-27T17:24:32.086Z,13012
2017-10-27T17:25:45.921Z,14356
2017-10-27T17:26:59.228Z,15392
2017-10-27T17:28:12.456Z,16244
2017-10-27T17:29:25.735Z,16956
2017-10-27T17:30:39.082Z,17728
2017-10-27T17:31:51.803Z,18112
2017-10-27T17:33:05.082Z,18528
2017-10-27T17:34:18.355Z,18880
2017-10-27T17:35:31.097Z,18528
2017-10-27T17:36:44.354Z,17536
2017-10-27T17:37:57.506Z,16112
2017-10-27T17:39:10.257Z,14804
2017-10-27T17:40:23.573Z,13704
2017-10-27T17:41:36.821Z,12932
2017-10-27T17:42:50.087Z,12604
2017-10-27T17:44:03.384Z,12800
2017-10-27T17:45:17.373Z,13144
2017-10-27T17:46:29.572Z,13588
2017-10-27T17:47:42.074Z,14124
2017-10-27T17:48:54.797Z,14852
2017-10-27T17:50:07.036Z,15892
2017-10-27T17:51:19.777Z,17472
2017-10-27T17:52:32.793Z,19264
2017-10-27T17:53:45.796Z,21280
2017-10-27T17:54:57.998Z,23264
2017-10-27T17:56:11.262Z,25248
2017-10-27T17:57:23.463Z,27104
2017-10-27T17:58:36.712Z,29056
2017-10-27T17:59:49.490Z,30752
2017-10-27T18:01:01.718Z,31680
2017-10-27T18:02:14.976Z,32096
2017-10-27T18:03:27.735Z,11936
2017-10-27T18:04:39.910Z,12108
2017-10-27T18:05:53.198Z,27712
2017-10-27T18:07:05.931Z,25216
2017-10-27T18:08:19.183Z,23648
2017-10-27T18:09:30.877Z,23840
2017-10-27T18:10:43.639Z,25408
2017-10-27T18:11:56.926Z,27168
2017-10-27T18:13:10.229Z,29504
2017-10-27T18:14:23.513Z,30048
2017-10-27T18:15:36.830Z,30496
2017-10-27T18:16:50.082Z,30592
2017-10-27T18:18:03.372Z,32896
2017-10-27T18:19:16.140Z,32320
2017-10-27T18:20:29.407Z,32256
2017-10-27T18:21:42.144Z,32544
2017-10-27T18:22:55.393Z,32928
2017-10-27T18:24:08.653Z,32672
2017-10-27T18:25:21.394Z,32640
2017-10-27T18:26:34.148Z,32928
2017-10-27T18:27:46.335Z,32992